Simon Bolivar International Airport
SEGU : rendu visible

Aérodrome :











RETROUVEZ-NOUS SUR...

 
LOGIN :

S'inscrire | Disclaimer

   EN    FR    IT 

 









Légende :    VFR   VFR Marginal   IFR   IFR Intensif   IFR Très Intensif
Visi : 
Plafond : 
>= 8 km
>= 3000ft
5 à 8 km
1000 à 3000 ft
1500m à 5 km
500 à 1000 ft
800 à 1500m
200 à 500 ft
< 800m
< 200 ft
Symboles :   Orages  Brouillard  Fortes neiges  Fortes précipitations  Vent > 20 kt






- Altitude de l'aérodrome : 19 ft
- Code IATA : GYE


SEGU - Simon Bolivar International

DERNIER METAR :
  • 281700Z 23006KT 180V250 9999 SCT020 BKN090 29/23 Q1014 NOSIG RMK A2994

METARs EXPIRÉS :
  • 281600Z 22009KT 9999 FEW016 SCT023 BKN090 26/22 Q1014 NOSIG RMK A2996
  • 281500Z 21010KT 9999 FEW010 BKN020 BKN090 25/22 Q1015 NOSIG RMK A2997

TAF SEGU
Valide du 28 à 18h jusqu'au 29 à 18h UTC


281640Z 2818/2918 06005KT 9999 BKN020 BKN090
FM290100 21007KT 9999 FEW010 BKN023 BKN100
BECMG 2907/2909 8000 RA
FM291000 23004KT 9999 BKN020 BKN030
FM291400 21008KT 9999 FEW010 BKN023 BKN100 TX30/2820Z TN24/2910Z



MET'MAP, la Météo Aéronautique d'un coup d'oeil ! - Copyright ORBIFLY Décembre 2007 - Disclaimer

ORBIFLY MET'MAP TEAM :

Programmation & Développement : Alexandra Zaïnal
Sur une idée originale de : Baudouin d'Aumeries
Assistance à la programmation : Marc-Olivier Méhu
Soutien technique & logistique : Manuel Goepfert

Contact : metmap@orbifly.com




SOURCES & CREDITS :

   NOAA       Earth
Advisory